sensor_id;sensor_type;location;lat;lon;timestamp;pressure;altitude;pressure_sealevel;temperature;humidity
75681;BME280;64294;49.176;16.626;2023-06-14T00:01:31;99066.75;;;14.84;62.14
75681;BME280;64294;49.176;16.626;2023-06-14T00:04:02;99065.66;;;14.79;61.64
75681;BME280;64294;49.176;16.626;2023-06-14T00:06:30;99070.72;;;14.89;61.92
75681;BME280;64294;49.176;16.626;2023-06-14T00:08:56;99069.38;;;14.90;61.93
75681;BME280;64294;49.176;16.626;2023-06-14T00:11:22;99063.72;;;14.90;61.55
75681;BME280;64294;49.176;16.626;2023-06-14T00:13:47;99075.25;;;14.84;61.43
75681;BME280;64294;49.176;16.626;2023-06-14T00:16:12;99068.13;;;14.75;62.08
75681;BME280;64294;49.176;16.626;2023-06-14T00:18:38;99071.13;;;14.77;61.75
75681;BME280;64294;49.176;16.626;2023-06-14T00:21:04;99073.00;;;14.82;61.36
75681;BME280;64294;49.176;16.626;2023-06-14T00:23:30;99086.22;;;14.80;60.99
75681;BME280;64294;49.176;16.626;2023-06-14T00:25:55;99086.06;;;14.70;61.93
75681;BME280;64294;49.176;16.626;2023-06-14T00:28:21;99079.09;;;14.64;62.01
75681;BME280;64294;49.176;16.626;2023-06-14T00:30:46;99084.41;;;14.60;62.56
75681;BME280;64294;49.176;16.626;2023-06-14T00:33:12;99081.41;;;14.58;62.08
75681;BME280;64294;49.176;16.626;2023-06-14T00:35:37;99082.50;;;14.62;62.32
75681;BME280;64294;49.176;16.626;2023-06-14T00:38:03;99082.13;;;14.66;61.38
75681;BME280;64294;49.176;16.626;2023-06-14T00:40:28;99082.69;;;14.72;62.10
75681;BME280;64294;49.176;16.626;2023-06-14T00:42:54;99083.84;;;14.61;61.85
75681;BME280;64294;49.176;16.626;2023-06-14T00:45:19;99082.50;;;14.62;62.17
75681;BME280;64294;49.176;16.626;2023-06-14T00:47:46;99085.94;;;14.53;61.94
75681;BME280;64294;49.176;16.626;2023-06-14T00:50:11;99081.06;;;14.46;62.99
75681;BME280;64294;49.176;16.626;2023-06-14T00:52:38;99075.41;;;14.46;61.76
75681;BME280;64294;49.176;16.626;2023-06-14T00:55:05;99078.41;;;14.48;62.22
75681;BME280;64294;49.176;16.626;2023-06-14T00:57:32;99073.13;;;14.52;62.30
75681;BME280;64294;49.176;16.626;2023-06-14T00:59:57;99072.94;;;14.42;61.92
75681;BME280;64294;49.176;16.626;2023-06-14T01:02:23;99065.63;;;14.32;63.16
75681;BME280;64294;49.176;16.626;2023-06-14T01:04:50;99074.31;;;14.34;62.52
75681;BME280;64294;49.176;16.626;2023-06-14T01:07:40;99071.28;;;14.24;62.55
75681;BME280;64294;49.176;16.626;2023-06-14T01:13:13;99061.09;;;14.44;61.91
75681;BME280;64294;49.176;16.626;2023-06-14T01:15:42;99073.16;;;14.37;63.03
75681;BME280;64294;49.176;16.626;2023-06-14T01:18:09;99066.59;;;14.19;62.57
75681;BME280;64294;49.176;16.626;2023-06-14T01:20:43;99070.38;;;14.14;62.67
75681;BME280;64294;49.176;16.626;2023-06-14T01:23:11;99062.63;;;14.22;64.08
75681;BME280;64294;49.176;16.626;2023-06-14T01:25:39;99057.56;;;14.13;63.28
75681;BME280;64294;49.176;16.626;2023-06-14T01:28:06;99058.50;;;14.08;63.93
75681;BME280;64294;49.176;16.626;2023-06-14T01:30:39;99057.59;;;14.05;63.53
75681;BME280;64294;49.176;16.626;2023-06-14T01:33:14;99065.09;;;14.10;62.79
75681;BME280;64294;49.176;16.626;2023-06-14T01:35:47;99063.06;;;14.03;63.49
75681;BME280;64294;49.176;16.626;2023-06-14T01:38:14;99061.94;;;13.99;64.25
75681;BME280;64294;49.176;16.626;2023-06-14T01:40:44;99048.94;;;13.96;63.54
75681;BME280;64294;49.176;16.626;2023-06-14T01:43:11;99062.69;;;13.91;63.49
75681;BME280;64294;49.176;16.626;2023-06-14T01:45:40;99063.44;;;14.00;63.10
75681;BME280;64294;49.176;16.626;2023-06-14T01:48:07;99061.53;;;14.02;62.80
75681;BME280;64294;49.176;16.626;2023-06-14T01:50:32;99066.06;;;14.05;61.96
75681;BME280;64294;49.176;16.626;2023-06-14T01:52:58;99063.44;;;13.92;62.89
75681;BME280;64294;49.176;16.626;2023-06-14T01:55:23;99066.09;;;13.82;62.63
75681;BME280;64294;49.176;16.626;2023-06-14T01:57:50;99067.22;;;13.87;62.80
75681;BME280;64294;49.176;16.626;2023-06-14T02:00:17;99061.19;;;13.90;62.70
75681;BME280;64294;49.176;16.626;2023-06-14T02:02:44;99051.78;;;13.88;63.74
75681;BME280;64294;49.176;16.626;2023-06-14T02:05:09;99051.00;;;13.87;63.36
75681;BME280;64294;49.176;16.626;2023-06-14T02:07:36;99055.91;;;13.94;62.67
75681;BME280;64294;49.176;16.626;2023-06-14T02:10:02;99052.72;;;13.90;63.24
75681;BME280;64294;49.176;16.626;2023-06-14T02:12:28;99051.78;;;13.88;63.05
75681;BME280;64294;49.176;16.626;2023-06-14T02:14:54;99058.91;;;13.89;62.10
75681;BME280;64294;49.176;16.626;2023-06-14T02:17:19;99059.88;;;13.84;62.71
75681;BME280;64294;49.176;16.626;2023-06-14T02:19:45;99064.75;;;13.76;62.34
75681;BME280;64294;49.176;16.626;2023-06-14T02:22:11;99065.72;;;13.71;63.47
75681;BME280;64294;49.176;16.626;2023-06-14T02:24:36;99065.34;;;13.74;62.62
75681;BME280;64294;49.176;16.626;2023-06-14T02:27:02;99066.84;;;13.75;63.37
75681;BME280;64294;49.176;16.626;2023-06-14T02:29:28;99077.19;;;13.73;62.93
75681;BME280;64294;49.176;16.626;2023-06-14T02:31:54;99072.50;;;13.68;62.84
75681;BME280;64294;49.176;16.626;2023-06-14T02:34:19;99073.25;;;13.60;62.75
75681;BME280;64294;49.176;16.626;2023-06-14T02:36:46;99072.50;;;13.68;63.21
75681;BME280;64294;49.176;16.626;2023-06-14T02:39:13;99068.53;;;13.71;63.08
75681;BME280;64294;49.176;16.626;2023-06-14T02:41:38;99069.47;;;13.73;62.77
75681;BME280;64294;49.176;16.626;2023-06-14T02:44:04;99068.53;;;13.71;62.94
75681;BME280;64294;49.176;16.626;2023-06-14T02:46:30;99065.91;;;13.73;62.91
75681;BME280;64294;49.176;16.626;2023-06-14T02:48:55;99063.25;;;13.75;62.98
75681;BME280;64294;49.176;16.626;2023-06-14T02:51:21;99065.72;;;13.71;63.04
75681;BME280;64294;49.176;16.626;2023-06-14T02:53:46;99054.78;;;13.75;62.99
75681;BME280;64294;49.176;16.626;2023-06-14T02:56:12;99064.59;;;13.74;62.84
75681;BME280;64294;49.176;16.626;2023-06-14T02:58:37;99055.94;;;13.72;63.12
75681;BME280;64294;49.176;16.626;2023-06-14T03:01:05;99064.22;;;13.70;62.25
75681;BME280;64294;49.176;16.626;2023-06-14T03:03:33;99064.59;;;13.58;62.90
75681;BME280;64294;49.176;16.626;2023-06-14T03:05:59;99066.28;;;13.54;62.79
75681;BME280;64294;49.176;16.626;2023-06-14T03:08:30;99075.31;;;13.68;62.66
75681;BME280;64294;49.176;16.626;2023-06-14T03:10:57;99069.88;;;13.62;62.33
75681;BME280;64294;49.176;16.626;2023-06-14T03:13:23;99074.00;;;13.69;62.40
75681;BME280;64294;49.176;16.626;2023-06-14T03:15:48;99067.97;;;13.72;61.78
75681;BME280;64294;49.176;16.626;2023-06-14T03:18:17;99070.22;;;13.74;62.18
75681;BME280;64294;49.176;16.626;2023-06-14T03:20:42;99066.31;;;13.77;62.85
75681;BME280;64294;49.176;16.626;2023-06-14T03:23:08;99060.84;;;13.79;62.76
75681;BME280;64294;49.176;16.626;2023-06-14T03:25:34;99060.78;;;13.94;62.55
75681;BME280;64294;49.176;16.626;2023-06-14T03:28:04;99064.38;;;13.87;61.48
75681;BME280;64294;49.176;16.626;2023-06-14T03:30:30;99065.91;;;13.80;61.93
75681;BME280;64294;49.176;16.626;2023-06-14T03:32:56;99073.63;;;13.87;62.23
75681;BME280;64294;49.176;16.626;2023-06-14T03:35:22;99080.03;;;13.80;62.67
75681;BME280;64294;49.176;16.626;2023-06-14T03:37:48;99075.13;;;13.88;62.30
75681;BME280;64294;49.176;16.626;2023-06-14T03:40:16;99074.72;;;13.92;61.99
75681;BME280;64294;49.176;16.626;2023-06-14T03:42:41;99081.91;;;13.85;62.03
75681;BME280;64294;49.176;16.626;2023-06-14T03:45:07;99074.19;;;13.86;62.45
75681;BME280;64294;49.176;16.626;2023-06-14T03:47:34;99080.03;;;13.88;61.56
75681;BME280;64294;49.176;16.626;2023-06-14T03:49:59;99087.38;;;13.99;61.58
75681;BME280;64294;49.176;16.626;2023-06-14T03:52:25;99083.38;;;14.17;61.35
75681;BME280;64294;49.176;16.626;2023-06-14T03:54:51;99081.31;;;14.17;61.26
75681;BME280;64294;49.176;16.626;2023-06-14T03:57:17;99098.78;;;14.31;61.29
75681;BME280;64294;49.176;16.626;2023-06-14T03:59:42;99098.25;;;14.33;60.98
75681;BME280;64294;49.176;16.626;2023-06-14T04:02:08;99098.41;;;14.27;60.75
75681;BME280;64294;49.176;16.626;2023-06-14T04:04:40;99095.94;;;14.39;60.63
75681;BME280;64294;49.176;16.626;2023-06-14T04:07:12;99095.94;;;14.54;59.38
75681;BME280;64294;49.176;16.626;2023-06-14T04:09:39;99108.50;;;14.68;59.66
75681;BME280;64294;49.176;16.626;2023-06-14T04:12:05;99108.50;;;14.68;59.75
75681;BME280;64294;49.176;16.626;2023-06-14T04:14:31;99097.94;;;14.76;59.37
75681;BME280;64294;49.176;16.626;2023-06-14T04:16:58;99101.84;;;14.89;59.77
75681;BME280;64294;49.176;16.626;2023-06-14T04:19:24;99104.03;;;14.98;58.85
75681;BME280;64294;49.176;16.626;2023-06-14T04:21:49;99111.66;;;14.80;59.65
75681;BME280;64294;49.176;16.626;2023-06-14T04:24:15;99107.06;;;15.00;59.78
75681;BME280;64294;49.176;16.626;2023-06-14T04:26:44;99101.78;;;14.96;59.91
75681;BME280;64294;49.176;16.626;2023-06-14T04:29:12;99118.19;;;14.98;59.24
75681;BME280;64294;49.176;16.626;2023-06-14T04:31:42;99107.22;;;15.02;59.19
75681;BME280;64294;49.176;16.626;2023-06-14T04:34:10;99105.69;;;15.08;59.16
75681;BME280;64294;49.176;16.626;2023-06-14T04:36:41;99111.38;;;15.08;58.74
75681;BME280;64294;49.176;16.626;2023-06-14T04:39:12;99112.47;;;15.13;59.35
75681;BME280;64294;49.176;16.626;2023-06-14T04:41:38;99108.72;;;15.03;59.10
75681;BME280;64294;49.176;16.626;2023-06-14T04:44:03;99112.81;;;15.17;59.30
75681;BME280;64294;49.176;16.626;2023-06-14T04:46:29;99115.63;;;15.25;58.45
75681;BME280;64294;49.176;16.626;2023-06-14T04:48:55;99116.38;;;15.25;59.09
75681;BME280;64294;49.176;16.626;2023-06-14T04:51:21;99115.63;;;15.50;57.92
75681;BME280;64294;49.176;16.626;2023-06-14T04:53:56;99120.84;;;15.61;56.62
75681;BME280;64294;49.176;16.626;2023-06-14T04:56:24;99115.78;;;15.84;56.78
75681;BME280;64294;49.176;16.626;2023-06-14T04:58:51;99119.06;;;15.98;56.77
75681;BME280;64294;49.176;16.626;2023-06-14T05:01:18;99112.66;;;16.15;56.09
75681;BME280;64294;49.176;16.626;2023-06-14T05:03:45;99114.34;;;16.52;54.66
75681;BME280;64294;49.176;16.626;2023-06-14T05:06:13;99119.28;;;16.86;53.78
75681;BME280;64294;49.176;16.626;2023-06-14T05:08:39;99119.34;;;17.13;52.87
75681;BME280;64294;49.176;16.626;2023-06-14T05:11:04;99122.66;;;17.19;52.42
75681;BME280;64294;49.176;16.626;2023-06-14T05:13:30;99120.28;;;17.25;52.84
75681;BME280;64294;49.176;16.626;2023-06-14T05:15:58;99127.75;;;16.77;52.79
75681;BME280;64294;49.176;16.626;2023-06-14T05:18:24;99130.34;;;17.09;52.87
75681;BME280;64294;49.176;16.626;2023-06-14T05:20:50;99127.47;;;17.00;52.87
75681;BME280;64294;49.176;16.626;2023-06-14T05:23:16;99130.47;;;17.29;52.44
75681;BME280;64294;49.176;16.626;2023-06-14T05:25:45;99135.16;;;17.34;53.05
75681;BME280;64294;49.176;16.626;2023-06-14T05:28:11;99140.88;;;17.43;52.52
75681;BME280;64294;49.176;16.626;2023-06-14T05:30:37;99144.41;;;17.61;52.24
75681;BME280;64294;49.176;16.626;2023-06-14T05:33:03;99145.31;;;17.91;51.67
75681;BME280;64294;49.176;16.626;2023-06-14T05:35:29;99149.97;;;17.96;50.58
75681;BME280;64294;49.176;16.626;2023-06-14T05:37:54;99156.44;;;17.69;51.44
75681;BME280;64294;49.176;16.626;2023-06-14T05:40:20;99150.25;;;17.63;51.64
75681;BME280;64294;49.176;16.626;2023-06-14T05:42:46;99146.13;;;17.20;53.21
75681;BME280;64294;49.176;16.626;2023-06-14T05:45:11;99152.00;;;17.49;52.22
75681;BME280;64294;49.176;16.626;2023-06-14T05:47:37;99153.25;;;17.38;52.51
75681;BME280;64294;49.176;16.626;2023-06-14T05:50:02;99155.03;;;17.34;52.45
75681;BME280;64294;49.176;16.626;2023-06-14T05:52:28;99154.09;;;17.48;52.26
75681;BME280;64294;49.176;16.626;2023-06-14T05:54:55;99157.13;;;17.60;52.16
75681;BME280;64294;49.176;16.626;2023-06-14T05:57:20;99168.44;;;17.77;51.53
75681;BME280;64294;49.176;16.626;2023-06-14T05:59:46;99163.94;;;18.21;50.84
75681;BME280;64294;49.176;16.626;2023-06-14T06:02:11;99169.53;;;18.38;50.17
75681;BME280;64294;49.176;16.626;2023-06-14T06:04:37;99162.72;;;18.80;49.56
75681;BME280;64294;49.176;16.626;2023-06-14T06:07:02;99177.56;;;19.07;46.75
75681;BME280;64294;49.176;16.626;2023-06-14T06:09:29;99167.56;;;20.80;42.20
75681;BME280;64294;49.176;16.626;2023-06-14T06:11:54;99173.72;;;21.64;41.11
75681;BME280;64294;49.176;16.626;2023-06-14T06:14:19;99167.84;;;20.63;43.40
75681;BME280;64294;49.176;16.626;2023-06-14T06:16:45;99184.44;;;20.24;42.02
75681;BME280;64294;49.176;16.626;2023-06-14T06:19:10;99176.75;;;20.58;42.71
75681;BME280;64294;49.176;16.626;2023-06-14T06:21:36;99176.66;;;20.89;41.43
75681;BME280;64294;49.176;16.626;2023-06-14T06:24:01;99177.25;;;21.08;40.94
75681;BME280;64294;49.176;16.626;2023-06-14T06:26:32;99173.63;;;21.97;40.83
75681;BME280;64294;49.176;16.626;2023-06-14T06:28:58;99186.19;;;22.51;39.56
75681;BME280;64294;49.176;16.626;2023-06-14T06:31:24;99187.13;;;22.79;38.77
75681;BME280;64294;49.176;16.626;2023-06-14T06:33:49;99189.72;;;23.74;36.10
75681;BME280;64294;49.176;16.626;2023-06-14T06:36:15;99189.94;;;21.95;39.41
75681;BME280;64294;49.176;16.626;2023-06-14T06:38:41;99198.34;;;21.69;38.99
75681;BME280;64294;49.176;16.626;2023-06-14T06:41:07;99196.56;;;21.53;41.26
75681;BME280;64294;49.176;16.626;2023-06-14T06:43:36;99198.81;;;21.21;40.37
75681;BME280;64294;49.176;16.626;2023-06-14T06:46:01;99198.91;;;20.69;41.71
75681;BME280;64294;49.176;16.626;2023-06-14T06:48:27;99206.56;;;20.45;41.75
75681;BME280;64294;49.176;16.626;2023-06-14T06:50:53;99207.13;;;20.74;41.02
75681;BME280;64294;49.176;16.626;2023-06-14T06:53:18;99211.22;;;20.40;41.07
75681;BME280;64294;49.176;16.626;2023-06-14T06:55:44;99217.59;;;20.60;40.63
75681;BME280;64294;49.176;16.626;2023-06-14T06:58:10;99220.63;;;22.76;36.90
75681;BME280;64294;49.176;16.626;2023-06-14T07:00:35;99222.16;;;24.43;35.56
75681;BME280;64294;49.176;16.626;2023-06-14T07:03:01;99219.19;;;25.85;32.76
75681;BME280;64294;49.176;16.626;2023-06-14T07:05:29;99211.97;;;26.80;29.80
75681;BME280;64294;49.176;16.626;2023-06-14T07:07:54;99218.31;;;26.95;30.81
75681;BME280;64294;49.176;16.626;2023-06-14T07:10:20;99216.81;;;27.27;29.47
75681;BME280;64294;49.176;16.626;2023-06-14T07:12:45;99227.22;;;27.70;29.38
75681;BME280;64294;49.176;16.626;2023-06-14T07:15:11;99226.56;;;27.18;28.17
75681;BME280;64294;49.176;16.626;2023-06-14T07:17:36;99224.91;;;27.84;27.49
75681;BME280;64294;49.176;16.626;2023-06-14T07:20:03;99228.88;;;27.57;27.50
75681;BME280;64294;49.176;16.626;2023-06-14T07:22:32;99230.81;;;29.71;25.34
75681;BME280;64294;49.176;16.626;2023-06-14T07:24:58;99228.22;;;30.29;24.24
75681;BME280;64294;49.176;16.626;2023-06-14T07:27:23;99233.53;;;30.36;24.94
75681;BME280;64294;49.176;16.626;2023-06-14T07:29:52;99240.28;;;28.09;27.69
75681;BME280;64294;49.176;16.626;2023-06-14T07:32:17;99236.09;;;26.55;28.84
75681;BME280;64294;49.176;16.626;2023-06-14T07:34:43;99242.81;;;25.38;31.40
75681;BME280;64294;49.176;16.626;2023-06-14T07:37:08;99245.47;;;24.36;32.31
75681;BME280;64294;49.176;16.626;2023-06-14T07:39:34;99241.84;;;24.63;32.56
75681;BME280;64294;49.176;16.626;2023-06-14T07:41:59;99241.66;;;25.29;32.30
75681;BME280;64294;49.176;16.626;2023-06-14T07:44:27;99242.38;;;25.00;33.21
75681;BME280;64294;49.176;16.626;2023-06-14T07:46:52;99243.59;;;25.25;32.02
75681;BME280;64294;49.176;16.626;2023-06-14T07:49:18;99235.81;;;26.02;31.90
75681;BME280;64294;49.176;16.626;2023-06-14T07:51:44;99232.66;;;26.12;29.91
75681;BME280;64294;49.176;16.626;2023-06-14T07:54:10;99242.31;;;25.87;30.49
75681;BME280;64294;49.176;16.626;2023-06-14T07:56:35;99243.31;;;25.93;30.21
75681;BME280;64294;49.176;16.626;2023-06-14T07:59:01;99241.16;;;26.73;29.41
75681;BME280;64294;49.176;16.626;2023-06-14T08:01:27;99233.47;;;27.46;28.58
75681;BME280;64294;49.176;16.626;2023-06-14T08:03:53;99233.97;;;28.32;26.70
75681;BME280;64294;49.176;16.626;2023-06-14T08:06:18;99230.94;;;29.99;26.14
75681;BME280;64294;49.176;16.626;2023-06-14T08:08:44;99231.09;;;31.62;24.40
75681;BME280;64294;49.176;16.626;2023-06-14T08:11:09;99225.16;;;31.00;24.47
75681;BME280;64294;49.176;16.626;2023-06-14T08:13:34;99222.13;;;32.16;22.44
75681;BME280;64294;49.176;16.626;2023-06-14T08:16:00;99227.50;;;31.96;22.16
75681;BME280;64294;49.176;16.626;2023-06-14T08:18:26;99226.59;;;32.92;21.91
75681;BME280;64294;49.176;16.626;2023-06-14T08:20:52;99222.88;;;31.83;23.17
75681;BME280;64294;49.176;16.626;2023-06-14T08:23:18;99228.53;;;29.67;25.89
75681;BME280;64294;49.176;16.626;2023-06-14T08:25:46;99220.94;;;31.96;23.76
75681;BME280;64294;49.176;16.626;2023-06-14T08:28:11;99214.69;;;32.41;23.01
75681;BME280;64294;49.176;16.626;2023-06-14T08:30:37;99218.16;;;32.34;22.46
75681;BME280;64294;49.176;16.626;2023-06-14T08:33:02;99214.78;;;30.91;23.52
75681;BME280;64294;49.176;16.626;2023-06-14T08:35:28;99221.81;;;29.39;26.48
75681;BME280;64294;49.176;16.626;2023-06-14T08:37:53;99213.88;;;30.33;25.39
75681;BME280;64294;49.176;16.626;2023-06-14T08:40:20;99212.56;;;31.78;24.44
75681;BME280;64294;49.176;16.626;2023-06-14T08:42:53;99204.22;;;32.64;21.69
75681;BME280;64294;49.176;16.626;2023-06-14T08:45:23;99216.91;;;33.65;21.73
75681;BME280;64294;49.176;16.626;2023-06-14T08:47:50;99211.84;;;34.20;20.01
75681;BME280;64294;49.176;16.626;2023-06-14T08:50:21;99206.75;;;32.82;21.24
75681;BME280;64294;49.176;16.626;2023-06-14T08:52:51;99213.06;;;34.01;19.74
75681;BME280;64294;49.176;16.626;2023-06-14T08:55:18;99217.25;;;33.86;20.18
75681;BME280;64294;49.176;16.626;2023-06-14T08:57:46;99209.34;;;33.96;21.40
75681;BME280;64294;49.176;16.626;2023-06-14T09:00:12;99213.94;;;30.11;24.01
75681;BME280;64294;49.176;16.626;2023-06-14T09:02:39;99220.47;;;29.88;25.80
75681;BME280;64294;49.176;16.626;2023-06-14T09:05:12;99219.53;;;29.57;25.99
75681;BME280;64294;49.176;16.626;2023-06-14T09:07:42;99220.00;;;29.73;26.42
75681;BME280;64294;49.176;16.626;2023-06-14T09:10:13;99219.38;;;29.99;24.96
75681;BME280;64294;49.176;16.626;2023-06-14T09:12:39;99223.88;;;28.73;27.72
75681;BME280;64294;49.176;16.626;2023-06-14T09:15:06;99225.22;;;26.88;28.83
75681;BME280;64294;49.176;16.626;2023-06-14T09:17:37;99220.22;;;28.13;27.20
75681;BME280;64294;49.176;16.626;2023-06-14T09:20:04;99230.56;;;27.11;29.27
75681;BME280;64294;49.176;16.626;2023-06-14T09:22:43;99227.97;;;27.17;28.83
75681;BME280;64294;49.176;16.626;2023-06-14T09:25:09;99219.66;;;28.36;28.62
75681;BME280;64294;49.176;16.626;2023-06-14T09:27:34;99224.34;;;28.08;28.35
75681;BME280;64294;49.176;16.626;2023-06-14T09:30:02;99211.69;;;28.17;28.34
75681;BME280;64294;49.176;16.626;2023-06-14T09:32:28;99222.97;;;28.09;28.23
75681;BME280;64294;49.176;16.626;2023-06-14T09:34:54;99218.47;;;28.43;29.12
75681;BME280;64294;49.176;16.626;2023-06-14T09:37:27;99214.50;;;27.59;30.12
75681;BME280;64294;49.176;16.626;2023-06-14T09:39:54;99213.63;;;27.19;30.41
75681;BME280;64294;49.176;16.626;2023-06-14T09:42:19;99214.94;;;26.82;29.92
75681;BME280;64294;49.176;16.626;2023-06-14T09:44:49;99215.31;;;26.75;29.29
75681;BME280;64294;49.176;16.626;2023-06-14T09:47:15;99213.44;;;26.81;29.26
75681;BME280;64294;49.176;16.626;2023-06-14T09:49:44;99212.00;;;27.87;28.97
75681;BME280;64294;49.176;16.626;2023-06-14T09:52:20;99209.75;;;30.16;24.51
75681;BME280;64294;49.176;16.626;2023-06-14T09:54:47;99197.00;;;31.65;24.08
75681;BME280;64294;49.176;16.626;2023-06-14T09:57:16;99195.97;;;30.94;24.31
75681;BME280;64294;49.176;16.626;2023-06-14T09:59:45;99203.97;;;29.46;25.85
75681;BME280;64294;49.176;16.626;2023-06-14T10:02:24;99208.19;;;28.80;26.40
75681;BME280;64294;49.176;16.626;2023-06-14T10:04:56;99206.25;;;27.87;29.39
75681;BME280;64294;49.176;16.626;2023-06-14T10:07:25;99213.09;;;26.73;30.81
75681;BME280;64294;49.176;16.626;2023-06-14T10:09:53;99194.75;;;26.17;31.88
75681;BME280;64294;49.176;16.626;2023-06-14T10:12:19;99193.56;;;26.07;32.18
75681;BME280;64294;49.176;16.626;2023-06-14T10:14:50;99200.69;;;25.90;33.09
75681;BME280;64294;49.176;16.626;2023-06-14T10:17:25;99194.75;;;25.86;33.34
75681;BME280;64294;49.176;16.626;2023-06-14T10:20:03;99203.59;;;25.60;33.93
75681;BME280;64294;49.176;16.626;2023-06-14T10:22:45;99202.81;;;24.44;35.32
75681;BME280;64294;49.176;16.626;2023-06-14T10:25:31;99201.97;;;24.41;35.80
75681;BME280;64294;49.176;16.626;2023-06-14T10:28:23;99198.16;;;23.84;36.48
75681;BME280;64294;49.176;16.626;2023-06-14T10:31:09;99194.28;;;23.79;36.79
75681;BME280;64294;49.176;16.626;2023-06-14T10:33:39;99193.16;;;23.08;38.59
75681;BME280;64294;49.176;16.626;2023-06-14T10:36:30;99200.88;;;22.45;39.66
75681;BME280;64294;49.176;16.626;2023-06-14T10:39:17;99188.16;;;22.72;39.16
75681;BME280;64294;49.176;16.626;2023-06-14T10:41:51;99199.50;;;22.70;39.80
75681;BME280;64294;49.176;16.626;2023-06-14T10:46:52;99193.84;;;22.95;39.53
75681;BME280;64294;49.176;16.626;2023-06-14T10:49:19;99182.38;;;22.95;39.68
75681;BME280;64294;49.176;16.626;2023-06-14T10:51:46;99186.69;;;22.47;38.46
75681;BME280;64294;49.176;16.626;2023-06-14T10:54:15;99183.69;;;22.57;38.47
75681;BME280;64294;49.176;16.626;2023-06-14T10:59:14;99176.03;;;28.28;30.82
75681;BME280;64294;49.176;16.626;2023-06-14T11:04:33;99166.38;;;31.92;25.24
75681;BME280;64294;49.176;16.626;2023-06-14T11:07:13;99170.00;;;29.95;25.54
75681;BME280;64294;49.176;16.626;2023-06-14T11:12:49;99172.88;;;28.22;27.11
75681;BME280;64294;49.176;16.626;2023-06-14T11:15:15;99173.78;;;29.32;27.12
75681;BME280;64294;49.176;16.626;2023-06-14T11:17:53;99174.97;;;29.92;25.90
75681;BME280;64294;49.176;16.626;2023-06-14T11:20:19;99161.97;;;29.23;27.10
75681;BME280;64294;49.176;16.626;2023-06-14T11:22:45;99163.16;;;27.93;29.02
75681;BME280;64294;49.176;16.626;2023-06-14T11:25:14;99162.66;;;27.08;29.75
75681;BME280;64294;49.176;16.626;2023-06-14T11:27:42;99165.63;;;25.19;34.35
75681;BME280;64294;49.176;16.626;2023-06-14T11:30:08;99172.47;;;23.61;35.49
75681;BME280;64294;49.176;16.626;2023-06-14T11:32:35;99166.53;;;23.70;34.78
75681;BME280;64294;49.176;16.626;2023-06-14T11:35:02;99171.53;;;24.36;33.35
75681;BME280;64294;49.176;16.626;2023-06-14T11:37:30;99162.97;;;24.66;32.93
75681;BME280;64294;49.176;16.626;2023-06-14T11:40:02;99162.28;;;24.95;33.06
75681;BME280;64294;49.176;16.626;2023-06-14T11:42:33;99157.19;;;26.80;31.32
75681;BME280;64294;49.176;16.626;2023-06-14T11:44:59;99154.91;;;27.12;30.27
75681;BME280;64294;49.176;16.626;2023-06-14T11:47:30;99153.69;;;27.35;30.78
75681;BME280;64294;49.176;16.626;2023-06-14T11:49:58;99150.69;;;28.26;30.27
75681;BME280;64294;49.176;16.626;2023-06-14T11:52:23;99148.72;;;30.10;27.33
75681;BME280;64294;49.176;16.626;2023-06-14T11:54:49;99143.09;;;28.79;26.55
75681;BME280;64294;49.176;16.626;2023-06-14T11:57:18;99145.50;;;27.65;29.47
75681;BME280;64294;49.176;16.626;2023-06-14T11:59:44;99136.13;;;27.29;29.15
75681;BME280;64294;49.176;16.626;2023-06-14T12:02:15;99141.78;;;26.92;29.68
75681;BME280;64294;49.176;16.626;2023-06-14T12:04:46;99135.09;;;26.87;30.47
75681;BME280;64294;49.176;16.626;2023-06-14T12:07:14;99125.22;;;28.23;30.60
75681;BME280;64294;49.176;16.626;2023-06-14T12:12:20;99132.06;;;27.92;29.04
75681;BME280;64294;49.176;16.626;2023-06-14T12:14:46;99117.34;;;27.66;29.08
75681;BME280;64294;49.176;16.626;2023-06-14T12:17:12;99131.09;;;24.89;32.88
75681;BME280;64294;49.176;16.626;2023-06-14T12:19:42;99129.06;;;24.07;33.97
75681;BME280;64294;49.176;16.626;2023-06-14T12:22:12;99128.94;;;23.92;34.77
75681;BME280;64294;49.176;16.626;2023-06-14T12:24:38;99129.50;;;23.49;36.31
75681;BME280;64294;49.176;16.626;2023-06-14T12:27:05;99130.97;;;23.50;36.94
75681;BME280;64294;49.176;16.626;2023-06-14T12:29:34;99153.59;;;23.69;39.45
75681;BME280;64294;49.176;16.626;2023-06-14T12:32:00;99153.59;;;23.69;44.96
75681;BME280;64294;49.176;16.626;2023-06-14T12:34:26;99159.34;;;23.44;49.68
75681;BME280;64294;49.176;16.626;2023-06-14T12:36:55;99156.53;;;22.70;49.33
75681;BME280;64294;49.176;16.626;2023-06-14T12:39:21;99168.00;;;21.64;54.35
75681;BME280;64294;49.176;16.626;2023-06-14T12:41:47;99166.09;;;21.45;49.88
75681;BME280;64294;49.176;16.626;2023-06-14T12:44:13;99171.34;;;20.95;50.36
75681;BME280;64294;49.176;16.626;2023-06-14T12:46:41;99169.19;;;20.41;55.61
75681;BME280;64294;49.176;16.626;2023-06-14T12:49:11;99162.22;;;19.91;59.71
75681;BME280;64294;49.176;16.626;2023-06-14T12:51:37;99153.41;;;19.18;58.62
75681;BME280;64294;49.176;16.626;2023-06-14T12:54:03;99157.00;;;19.09;52.79
75681;BME280;64294;49.176;16.626;2023-06-14T12:56:28;99152.38;;;18.94;59.31
75681;BME280;64294;49.176;16.626;2023-06-14T12:58:54;99157.47;;;18.66;54.57
75681;BME280;64294;49.176;16.626;2023-06-14T13:01:19;99157.56;;;18.59;59.16
75681;BME280;64294;49.176;16.626;2023-06-14T13:03:46;99158.28;;;18.30;59.42
75681;BME280;64294;49.176;16.626;2023-06-14T13:06:11;99151.56;;;18.26;58.65
75681;BME280;64294;49.176;16.626;2023-06-14T13:08:37;99151.63;;;18.64;60.00